createdAt,value
2019-03-16T00:01:29.112Z,7.50
2019-03-16T00:03:58.178Z,7.40
2019-03-16T00:06:27.235Z,7.50
2019-03-16T00:08:56.273Z,7.50
2019-03-16T00:11:25.251Z,7.50
2019-03-16T00:13:54.315Z,7.50
2019-03-16T00:16:23.503Z,7.50
2019-03-16T00:18:52.574Z,7.50
2019-03-16T00:21:21.657Z,7.50
2019-03-16T00:23:50.686Z,7.50
2019-03-16T00:26:19.783Z,7.50
2019-03-16T00:28:48.756Z,7.50
2019-03-16T00:31:17.824Z,7.50
2019-03-16T00:33:46.772Z,7.50
2019-03-16T00:36:15.842Z,7.50
2019-03-16T00:38:44.943Z,7.50
2019-03-16T00:41:14.110Z,7.50
2019-03-16T00:43:43.173Z,7.40
2019-03-16T00:46:12.345Z,7.40
2019-03-16T00:48:41.405Z,7.40
2019-03-16T00:51:10.478Z,7.40
2019-03-16T00:53:39.652Z,7.40
2019-03-16T00:56:08.725Z,7.40
2019-03-16T00:58:37.806Z,7.40
2019-03-16T01:01:07.030Z,7.40
2019-03-16T01:03:35.990Z,7.40
2019-03-16T01:06:05.081Z,7.40
2019-03-16T01:08:34.437Z,7.40
2019-03-16T01:11:03.499Z,7.40
2019-03-16T01:13:32.581Z,7.40
2019-03-16T01:16:01.554Z,7.40
2019-03-16T01:18:30.617Z,7.40
2019-03-16T01:20:59.694Z,7.40
2019-03-16T01:23:28.708Z,7.40
2019-03-16T01:25:57.884Z,7.40
2019-03-16T01:28:26.948Z,7.30
2019-03-16T01:30:55.933Z,7.40
2019-03-16T01:33:25.011Z,7.40
2019-03-16T01:35:54.003Z,7.40
2019-03-16T01:38:23.107Z,7.40
2019-03-16T01:40:52.163Z,7.40
2019-03-16T01:43:21.454Z,7.40
2019-03-16T01:45:50.515Z,7.40
2019-03-16T01:48:19.697Z,7.30
2019-03-16T01:50:48.805Z,7.30
2019-03-16T01:53:18.496Z,7.30
2019-03-16T01:55:47.505Z,7.30
2019-03-16T01:58:16.620Z,7.30
2019-03-16T02:00:45.686Z,7.30
2019-03-16T02:03:14.726Z,7.30
2019-03-16T02:05:43.834Z,7.30
2019-03-16T02:08:12.819Z,7.30
2019-03-16T02:10:41.881Z,7.30
2019-03-16T02:13:10.969Z,7.30
2019-03-16T02:15:40.117Z,7.30
2019-03-16T02:18:09.236Z,7.30
2019-03-16T02:20:38.310Z,7.30
2019-03-16T02:23:07.483Z,7.30
2019-03-16T02:25:36.539Z,7.20
2019-03-16T02:28:05.655Z,7.20
2019-03-16T02:30:34.716Z,7.20
2019-03-16T02:33:12.779Z,7.20
2019-03-16T02:35:34.642Z,7.20
2019-03-16T02:38:03.869Z,7.20
2019-03-16T02:40:32.895Z,7.20
2019-03-16T02:43:01.965Z,7.20
2019-03-16T02:45:31.003Z,7.10
2019-03-16T02:48:00.062Z,7.10
2019-03-16T02:50:29.123Z,7.10
2019-03-16T02:52:58.040Z,7.10
2019-03-16T02:55:27.006Z,7.10
2019-03-16T02:57:56.163Z,7.10
2019-03-16T03:00:25.303Z,7.10
2019-03-16T03:02:54.398Z,7.10
2019-03-16T03:05:23.550Z,7.10
2019-03-16T03:07:52.671Z,7.10
2019-03-16T03:10:21.655Z,7.00
2019-03-16T03:12:50.806Z,7.10
2019-03-16T03:15:19.849Z,7.10
2019-03-16T03:17:48.921Z,7.10
2019-03-16T03:20:17.924Z,7.10
2019-03-16T03:22:47.026Z,7.10
2019-03-16T03:25:15.991Z,7.10
2019-03-16T03:27:44.993Z,7.10
2019-03-16T03:30:14.493Z,7.10
2019-03-16T03:32:43.655Z,7.10
2019-03-16T03:35:12.727Z,7.10
2019-03-16T03:37:41.858Z,7.10
2019-03-16T03:40:11.094Z,7.10
2019-03-16T03:42:40.221Z,7.10
2019-03-16T03:45:09.533Z,7.10
2019-03-16T03:47:38.648Z,7.10
2019-03-16T03:50:08.074Z,7.10
2019-03-16T03:52:37.128Z,7.10
2019-03-16T03:55:06.656Z,7.10
2019-03-16T03:57:35.689Z,7.20
2019-03-16T04:00:05.492Z,7.20
2019-03-16T04:02:34.627Z,7.10
2019-03-16T04:05:04.054Z,7.10
2019-03-16T04:07:33.169Z,7.20
2019-03-16T04:10:02.229Z,7.20
2019-03-16T04:12:31.289Z,7.20
2019-03-16T04:15:00.477Z,7.10
2019-03-16T04:17:29.544Z,7.20
2019-03-16T04:19:58.615Z,7.20
2019-03-16T04:22:27.593Z,7.20
2019-03-16T04:24:56.623Z,7.20
2019-03-16T04:27:25.795Z,7.20
2019-03-16T04:29:54.779Z,7.20
2019-03-16T04:32:23.851Z,7.10
2019-03-16T04:34:52.819Z,7.10
2019-03-16T04:37:21.779Z,7.10
2019-03-16T04:39:50.840Z,7.10
2019-03-16T04:42:19.911Z,7.10
2019-03-16T04:44:48.954Z,7.10
2019-03-16T04:47:18.026Z,7.10
2019-03-16T04:49:47.082Z,7.10
2019-03-16T04:52:16.123Z,7.10
2019-03-16T04:54:45.084Z,7.10
2019-03-16T04:57:14.281Z,7.10
2019-03-16T04:59:43.413Z,7.00
2019-03-16T05:02:12.569Z,7.00
2019-03-16T05:04:42.777Z,7.00
2019-03-16T05:07:12.043Z,7.00
2019-03-16T05:09:41.077Z,7.00
2019-03-16T05:12:10.218Z,7.00
2019-03-16T05:14:39.202Z,7.00
2019-03-16T05:17:08.264Z,7.00
2019-03-16T05:19:37.338Z,7.00
2019-03-16T05:22:06.370Z,6.90
2019-03-16T05:24:35.332Z,6.90
2019-03-16T05:27:04.443Z,6.90
2019-03-16T05:29:33.469Z,6.90
2019-03-16T05:32:02.535Z,6.90
2019-03-16T05:34:31.536Z,6.90
2019-03-16T05:37:00.595Z,6.90
2019-03-16T05:39:29.604Z,6.90
2019-03-16T05:41:58.652Z,6.90
2019-03-16T05:44:27.814Z,6.90
2019-03-16T05:46:56.846Z,6.90
2019-03-16T05:49:25.967Z,6.90
2019-03-16T05:51:54.936Z,6.90
2019-03-16T05:54:23.903Z,6.90
2019-03-16T05:56:52.955Z,6.90
2019-03-16T05:59:21.863Z,6.90
2019-03-16T06:01:50.896Z,6.90
2019-03-16T06:04:19.995Z,6.90
2019-03-16T06:06:48.950Z,6.90
2019-03-16T06:09:17.911Z,6.90
2019-03-16T06:11:46.903Z,6.90
2019-03-16T06:14:15.855Z,6.90
2019-03-16T06:16:44.819Z,6.90
2019-03-16T06:19:13.893Z,6.90
2019-03-16T06:21:43.000Z,6.90
2019-03-16T06:24:11.994Z,6.90
2019-03-16T06:26:41.159Z,6.90
2019-03-16T06:29:10.289Z,6.90
2019-03-16T06:31:39.350Z,6.90
2019-03-16T06:34:09.124Z,6.90
2019-03-16T06:36:38.364Z,6.90
2019-03-16T06:39:08.134Z,7.20
2019-03-16T06:41:37.239Z,7.40
2019-03-16T06:44:06.325Z,7.50
2019-03-16T06:46:35.482Z,7.70
2019-03-16T06:49:04.631Z,7.80
2019-03-16T06:51:33.702Z,7.80
2019-03-16T06:54:02.785Z,7.90
2019-03-16T06:56:31.899Z,8.00
2019-03-16T06:59:00.882Z,8.10
2019-03-16T07:01:29.916Z,8.20
2019-03-16T07:03:58.963Z,8.30
2019-03-16T07:06:28.159Z,8.30
2019-03-16T07:08:57.222Z,8.30
2019-03-16T07:11:26.205Z,8.40
2019-03-16T07:13:55.277Z,8.40
2019-03-16T07:16:24.393Z,8.50
2019-03-16T07:18:58.656Z,8.50
2019-03-16T07:21:24.344Z,8.50
2019-03-16T07:23:53.424Z,8.50
2019-03-16T07:26:22.538Z,8.40
2019-03-16T07:28:51.442Z,8.30
2019-03-16T07:31:20.595Z,8.30
2019-03-16T07:33:50.111Z,8.20
2019-03-16T07:36:19.203Z,8.20
2019-03-16T07:38:48.220Z,8.10
2019-03-16T07:41:17.229Z,8.10
2019-03-16T07:43:46.270Z,8.10
2019-03-16T07:46:15.291Z,8.20
2019-03-16T07:48:44.382Z,8.20
2019-03-16T07:51:13.356Z,8.10
2019-03-16T07:53:42.396Z,8.20
2019-03-16T07:56:11.477Z,8.10
2019-03-16T07:58:40.374Z,8.10
2019-03-16T08:01:09.449Z,8.10
2019-03-16T08:03:38.441Z,8.10
2019-03-16T08:06:07.433Z,8.00
2019-03-16T08:08:36.481Z,8.00
2019-03-16T08:11:05.642Z,8.10
2019-03-16T08:13:34.882Z,8.10
2019-03-16T08:16:04.037Z,8.10
2019-03-16T08:18:33.185Z,8.20
2019-03-16T08:21:02.160Z,8.20
2019-03-16T08:23:31.127Z,8.00
2019-03-16T08:26:00.031Z,7.90
2019-03-16T08:28:29.141Z,7.90
2019-03-16T08:30:58.135Z,7.80
2019-03-16T08:33:27.114Z,7.80
2019-03-16T08:35:56.139Z,7.70
2019-03-16T08:38:25.237Z,7.60
2019-03-16T08:40:54.354Z,7.50
2019-03-16T08:43:23.394Z,7.40
2019-03-16T08:45:52.678Z,7.40
2019-03-16T08:48:23.034Z,7.30
2019-03-16T08:50:52.551Z,7.30
2019-03-16T08:53:22.866Z,7.20
2019-03-16T08:55:52.329Z,7.20
2019-03-16T08:58:21.362Z,7.00
2019-03-16T09:00:50.406Z,7.10
2019-03-16T09:03:19.374Z,6.90
2019-03-16T09:05:48.402Z,6.80
2019-03-16T09:08:17.461Z,6.70
2019-03-16T09:10:46.571Z,6.70
2019-03-16T09:13:15.551Z,6.60
2019-03-16T09:15:44.543Z,6.50
2019-03-16T09:18:13.553Z,6.50
2019-03-16T09:20:42.586Z,6.50
2019-03-16T09:23:11.547Z,6.50
2019-03-16T09:25:40.524Z,6.50
2019-03-16T09:28:18.209Z,6.40
2019-03-16T09:30:40.198Z,6.40
2019-03-16T09:33:09.382Z,6.50
2019-03-16T09:35:38.570Z,6.40
2019-03-16T09:38:07.744Z,6.40
2019-03-16T09:40:36.857Z,6.50
2019-03-16T09:43:06.073Z,6.50
2019-03-16T09:45:35.088Z,6.50
2019-03-16T09:48:04.245Z,6.50
2019-03-16T09:50:33.282Z,6.50
2019-03-16T09:53:02.355Z,6.50
2019-03-16T09:55:31.423Z,6.50
2019-03-16T09:58:00.405Z,6.60
2019-03-16T10:00:29.593Z,6.50
2019-03-16T10:02:58.670Z,6.50
2019-03-16T10:05:27.717Z,6.50
2019-03-16T10:07:57.292Z,6.50
2019-03-16T10:10:26.541Z,6.60
2019-03-16T10:12:56.143Z,6.60
2019-03-16T10:15:25.288Z,6.70
2019-03-16T10:17:54.328Z,6.80
2019-03-16T10:20:23.434Z,6.90
2019-03-16T10:22:52.494Z,6.80
2019-03-16T10:25:21.627Z,6.70
2019-03-16T10:27:50.679Z,6.60
2019-03-16T10:30:20.114Z,6.70
2019-03-16T10:32:49.133Z,6.60
2019-03-16T10:35:18.473Z,6.70
2019-03-16T10:37:47.584Z,6.70
2019-03-16T10:40:16.722Z,6.70
2019-03-16T10:42:45.782Z,6.70
2019-03-16T10:45:14.945Z,6.70
2019-03-16T10:47:44.078Z,6.70
2019-03-16T10:50:13.260Z,6.90
2019-03-16T10:52:42.383Z,6.90
2019-03-16T10:55:11.586Z,7.00
2019-03-16T10:57:40.725Z,7.10
2019-03-16T11:00:10.302Z,7.10
2019-03-16T11:02:39.375Z,7.10
2019-03-16T11:05:08.569Z,7.10
2019-03-16T11:07:37.714Z,7.20
2019-03-16T11:10:06.891Z,7.20
2019-03-16T11:12:35.983Z,7.20
2019-03-16T11:15:05.318Z,7.20
2019-03-16T11:17:34.455Z,7.20
2019-03-16T11:20:03.515Z,7.30
2019-03-16T11:22:32.570Z,7.30
2019-03-16T11:25:01.649Z,7.20
2019-03-16T11:27:30.745Z,7.20
2019-03-16T11:29:59.874Z,7.30
2019-03-16T11:32:31.138Z,7.30
2019-03-16T11:35:00.260Z,7.40
2019-03-16T11:37:29.580Z,7.40
2019-03-16T11:39:58.559Z,7.40
2019-03-16T11:42:27.668Z,7.40
2019-03-16T11:44:56.779Z,7.40
2019-03-16T11:47:29.268Z,7.40
2019-03-16T11:49:58.302Z,7.40
2019-03-16T11:52:28.469Z,7.30
2019-03-16T11:54:57.568Z,7.40
2019-03-16T11:57:26.556Z,7.40
2019-03-16T11:59:55.577Z,7.40
2019-03-16T12:02:29.665Z,7.40
2019-03-16T12:04:58.492Z,7.30
2019-03-16T12:07:27.878Z,7.30
2019-03-16T12:09:56.974Z,7.20
2019-03-16T12:12:26.102Z,7.20
2019-03-16T12:14:55.214Z,7.20
2019-03-16T12:17:24.491Z,7.10
2019-03-16T12:19:53.629Z,7.10
2019-03-16T12:22:22.805Z,7.20
2019-03-16T12:24:52.218Z,7.20
2019-03-16T12:27:21.287Z,7.10
2019-03-16T12:29:50.540Z,7.10
2019-03-16T12:32:19.544Z,7.10
2019-03-16T12:34:48.507Z,7.10
2019-03-16T12:37:17.558Z,7.10
2019-03-16T12:39:46.796Z,7.10
2019-03-16T12:42:20.414Z,7.10
2019-03-16T12:44:51.524Z,7.00
2019-03-16T12:47:20.574Z,7.10
2019-03-16T12:49:52.806Z,7.10
2019-03-16T12:52:21.991Z,7.10
2019-03-16T12:54:50.998Z,7.10
2019-03-16T12:57:20.250Z,7.10
2019-03-16T12:59:49.420Z,7.10
2019-03-16T13:02:18.479Z,7.10
2019-03-16T13:04:47.777Z,7.10
2019-03-16T13:07:16.895Z,7.20
2019-03-16T13:09:53.068Z,7.20
2019-03-16T13:12:22.218Z,7.20
2019-03-16T13:14:51.221Z,7.30
2019-03-16T13:17:21.368Z,7.30
2019-03-16T13:19:50.625Z,7.30
2019-03-16T13:22:19.698Z,7.40
2019-03-16T13:24:48.794Z,7.40
2019-03-16T13:27:17.951Z,7.40
2019-03-16T13:29:58.243Z,7.50
2019-03-16T13:32:18.130Z,7.50
2019-03-16T13:34:47.349Z,7.50
2019-03-16T13:37:16.473Z,7.60
2019-03-16T13:39:45.657Z,7.60
2019-03-16T13:42:17.101Z,7.60
2019-03-16T13:44:46.239Z,7.70
2019-03-16T13:47:15.406Z,7.70
2019-03-16T13:49:44.622Z,7.80
2019-03-16T13:52:13.862Z,7.90
2019-03-16T13:54:43.084Z,7.90
2019-03-16T13:57:12.190Z,8.00
2019-03-16T13:59:41.285Z,8.10
2019-03-16T14:02:10.618Z,8.10
2019-03-16T14:04:40.122Z,8.20
2019-03-16T14:07:09.359Z,8.30
2019-03-16T14:09:38.475Z,8.40
2019-03-16T14:12:07.899Z,8.50
2019-03-16T14:14:37.039Z,8.50
2019-03-16T14:17:06.169Z,8.60
2019-03-16T14:19:35.362Z,8.70
2019-03-16T14:22:04.498Z,8.80
2019-03-16T14:24:33.745Z,8.80
2019-03-16T14:27:03.219Z,8.90
2019-03-16T14:29:32.333Z,9.00
2019-03-16T14:32:01.636Z,9.00
2019-03-16T14:34:30.683Z,9.10
2019-03-16T14:36:59.657Z,9.10
2019-03-16T14:39:28.736Z,9.20
2019-03-16T14:41:57.856Z,9.20
2019-03-16T14:44:26.903Z,9.30
2019-03-16T14:46:55.963Z,9.40
2019-03-16T14:49:25.042Z,9.40
2019-03-16T14:51:54.163Z,9.50
2019-03-16T14:54:23.304Z,9.50
2019-03-16T14:56:52.402Z,9.60
2019-03-16T14:59:21.587Z,9.60
2019-03-16T15:01:50.759Z,9.70
2019-03-16T15:04:19.816Z,9.70
2019-03-16T15:06:48.927Z,9.70
2019-03-16T15:09:17.976Z,9.80
2019-03-16T15:11:46.876Z,9.80
2019-03-16T15:14:21.408Z,9.90
2019-03-16T15:16:47.018Z,9.90
2019-03-16T15:19:16.121Z,10.00
2019-03-16T15:21:45.013Z,10.00
2019-03-16T15:24:14.103Z,10.00
2019-03-16T15:26:43.170Z,10.10
2019-03-16T15:29:12.212Z,10.20
2019-03-16T15:31:41.227Z,10.20
2019-03-16T15:34:10.348Z,10.20
2019-03-16T15:36:40.892Z,10.20
2019-03-16T15:39:10.339Z,10.20
2019-03-16T15:41:39.405Z,10.30
2019-03-16T15:44:08.459Z,10.30
2019-03-16T15:46:37.580Z,10.30
2019-03-16T15:49:06.649Z,10.30
2019-03-16T15:51:35.652Z,10.40
2019-03-16T15:54:04.891Z,10.40
2019-03-16T15:56:34.056Z,10.40
2019-03-16T15:59:03.101Z,10.40
2019-03-16T16:01:32.244Z,10.40
2019-03-16T16:04:01.222Z,10.40
2019-03-16T16:06:30.347Z,10.40
2019-03-16T16:08:59.579Z,10.50
2019-03-16T16:11:28.815Z,10.50
2019-03-16T16:13:57.788Z,10.50
2019-03-16T16:16:27.053Z,10.50
2019-03-16T16:18:56.063Z,10.60
2019-03-16T16:21:25.156Z,10.60
2019-03-16T16:23:54.238Z,10.70
2019-03-16T16:26:23.392Z,10.80
2019-03-16T16:28:52.445Z,10.80
2019-03-16T16:31:21.549Z,10.80
2019-03-16T16:33:50.672Z,10.90
2019-03-16T16:36:19.912Z,10.90
2019-03-16T16:38:52.587Z,10.90
2019-03-16T16:41:21.704Z,10.90
2019-03-16T16:43:50.716Z,10.90
2019-03-16T16:46:19.884Z,10.90
2019-03-16T16:48:48.889Z,10.90
2019-03-16T16:51:18.240Z,10.90
2019-03-16T16:53:47.449Z,10.90
2019-03-16T16:56:16.490Z,10.90
2019-03-16T16:58:45.602Z,10.90
2019-03-16T17:01:14.641Z,10.90
2019-03-16T17:03:43.813Z,10.90
2019-03-16T17:06:12.891Z,10.90
2019-03-16T17:08:41.978Z,10.90
2019-03-16T17:11:11.058Z,10.90
2019-03-16T17:13:40.086Z,10.90
2019-03-16T17:16:09.165Z,10.90
2019-03-16T17:18:38.159Z,11.00
2019-03-16T17:21:08.280Z,11.00
2019-03-16T17:23:39.970Z,11.00
2019-03-16T17:26:09.108Z,11.00
2019-03-16T17:28:38.287Z,11.00
2019-03-16T17:31:10.953Z,11.00
2019-03-16T17:33:40.053Z,10.90
2019-03-16T17:36:09.105Z,10.90
2019-03-16T17:38:38.268Z,10.90
2019-03-16T17:41:07.276Z,10.90
2019-03-16T17:43:36.260Z,10.90
2019-03-16T17:46:05.339Z,10.90
2019-03-16T17:48:34.401Z,10.90
2019-03-16T17:51:03.398Z,10.90
2019-03-16T17:53:32.440Z,10.80
2019-03-16T17:56:01.548Z,10.80
2019-03-16T17:58:31.107Z,10.80
2019-03-16T18:01:00.352Z,10.80
2019-03-16T18:03:29.354Z,10.70
2019-03-16T18:05:58.340Z,10.70
2019-03-16T18:08:27.442Z,10.70
2019-03-16T18:10:56.496Z,10.70
2019-03-16T18:13:25.549Z,10.70
2019-03-16T18:15:54.594Z,10.70
2019-03-16T18:18:23.689Z,10.70
2019-03-16T18:20:52.874Z,10.70
2019-03-16T18:23:22.377Z,10.60
2019-03-16T18:25:51.410Z,10.60
2019-03-16T18:28:20.798Z,10.60
2019-03-16T18:30:54.404Z,10.60
2019-03-16T18:33:23.671Z,10.60
2019-03-16T18:35:52.663Z,10.60
2019-03-16T18:38:22.213Z,10.60
2019-03-16T18:40:51.305Z,10.50
2019-03-16T18:43:20.407Z,10.50
2019-03-16T18:45:49.578Z,10.50
2019-03-16T18:48:18.643Z,10.50
2019-03-16T18:50:47.746Z,10.50
2019-03-16T18:53:17.410Z,10.40
2019-03-16T18:55:46.481Z,10.40
2019-03-16T18:58:16.031Z,10.40
2019-03-16T19:00:45.391Z,10.40
2019-03-16T19:03:14.494Z,10.40
2019-03-16T19:05:44.065Z,10.40
2019-03-16T19:08:13.139Z,10.40
2019-03-16T19:10:42.140Z,10.40
2019-03-16T19:13:12.201Z,10.40
2019-03-16T19:15:45.026Z,10.40
2019-03-16T19:18:14.323Z,10.40
2019-03-16T19:20:43.563Z,10.40
2019-03-16T19:23:13.060Z,10.40
2019-03-16T19:25:42.115Z,10.40
2019-03-16T19:28:11.248Z,10.50
2019-03-16T19:30:40.264Z,10.50
2019-03-16T19:33:09.378Z,10.50
2019-03-16T19:35:38.417Z,10.50
2019-03-16T19:38:07.416Z,10.50
2019-03-16T19:40:36.528Z,10.50
2019-03-16T19:43:05.651Z,10.50
2019-03-16T19:45:34.639Z,10.50
2019-03-16T19:48:03.806Z,10.50
2019-03-16T19:50:33.010Z,10.50
2019-03-16T19:53:02.096Z,10.50
2019-03-16T19:55:31.230Z,10.50
2019-03-16T19:58:00.279Z,10.50
2019-03-16T20:00:29.350Z,10.40
2019-03-16T20:02:58.386Z,10.50
2019-03-16T20:05:27.468Z,10.50
2019-03-16T20:07:57.497Z,10.50
2019-03-16T20:10:26.582Z,10.50
2019-03-16T20:12:55.600Z,10.50
2019-03-16T20:15:24.779Z,10.50
2019-03-16T20:17:53.947Z,10.50
2019-03-16T20:20:23.156Z,10.50
2019-03-16T20:22:54.798Z,10.50
2019-03-16T20:25:23.914Z,10.50
2019-03-16T20:27:53.075Z,10.50
2019-03-16T20:30:26.858Z,10.50
2019-03-16T20:33:03.104Z,10.50
2019-03-16T20:35:23.846Z,10.50
2019-03-16T20:37:52.882Z,10.50
2019-03-16T20:40:21.764Z,10.50
2019-03-16T20:42:50.800Z,10.50
2019-03-16T20:45:20.172Z,10.50
2019-03-16T20:47:49.190Z,10.50
2019-03-16T20:50:18.422Z,10.40
2019-03-16T20:52:47.555Z,10.50
2019-03-16T20:55:16.601Z,10.40
2019-03-16T20:57:45.806Z,10.40
2019-03-16T21:00:15.141Z,10.40
2019-03-16T21:02:44.135Z,10.40
2019-03-16T21:05:13.258Z,10.40
2019-03-16T21:07:42.344Z,10.40
2019-03-16T21:10:11.382Z,10.40
2019-03-16T21:12:40.424Z,10.40
2019-03-16T21:15:10.071Z,10.40
2019-03-16T21:17:39.063Z,10.40
2019-03-16T21:20:09.502Z,10.40
2019-03-16T21:22:39.158Z,10.40
2019-03-16T21:25:08.992Z,10.40
2019-03-16T21:27:38.097Z,10.40
2019-03-16T21:30:09.041Z,10.40
2019-03-16T21:32:38.018Z,10.40
2019-03-16T21:35:07.329Z,10.40
2019-03-16T21:37:36.504Z,10.40
2019-03-16T21:40:06.374Z,10.40
2019-03-16T21:42:35.464Z,10.40
2019-03-16T21:45:04.740Z,10.40
2019-03-16T21:47:33.748Z,10.40
2019-03-16T21:50:02.787Z,10.40
2019-03-16T21:52:31.866Z,10.40
2019-03-16T21:55:00.973Z,10.50
2019-03-16T21:57:30.229Z,10.50
2019-03-16T21:59:59.526Z,10.50
2019-03-16T22:02:28.638Z,10.50
2019-03-16T22:04:57.707Z,10.50
2019-03-16T22:07:26.754Z,10.50
2019-03-16T22:09:55.854Z,10.50
2019-03-16T22:12:24.843Z,10.50
2019-03-16T22:14:53.921Z,10.50
2019-03-16T22:17:23.883Z,10.50
2019-03-16T22:19:52.883Z,10.50
2019-03-16T22:22:21.965Z,10.50
2019-03-16T22:24:51.050Z,10.50
2019-03-16T22:27:20.040Z,10.50
2019-03-16T22:29:49.080Z,10.50
2019-03-16T22:32:18.100Z,10.50
2019-03-16T22:34:47.122Z,10.50
2019-03-16T22:37:16.192Z,10.50
2019-03-16T22:39:45.289Z,10.50
2019-03-16T22:42:14.423Z,10.40
2019-03-16T22:44:43.449Z,10.40
2019-03-16T22:47:12.857Z,10.40
2019-03-16T22:49:42.001Z,10.40
2019-03-16T22:52:11.040Z,10.40
2019-03-16T22:54:40.075Z,10.40
2019-03-16T22:57:09.271Z,10.40
2019-03-16T22:59:38.214Z,10.30
2019-03-16T23:02:07.741Z,10.40
2019-03-16T23:04:36.795Z,10.40
2019-03-16T23:07:05.841Z,10.40
2019-03-16T23:09:34.921Z,10.30
2019-03-16T23:12:04.041Z,10.30
2019-03-16T23:14:33.107Z,10.30
2019-03-16T23:17:02.140Z,10.30
2019-03-16T23:19:31.204Z,10.30
2019-03-16T23:22:00.257Z,10.30
2019-03-16T23:24:29.220Z,10.30
2019-03-16T23:26:58.202Z,10.30
2019-03-16T23:29:27.176Z,10.20
2019-03-16T23:31:56.166Z,10.20
2019-03-16T23:34:25.153Z,10.30
2019-03-16T23:36:54.218Z,10.20
2019-03-16T23:39:23.293Z,10.20
2019-03-16T23:41:52.318Z,10.20
2019-03-16T23:44:21.294Z,10.20
2019-03-16T23:46:50.328Z,10.20
2019-03-16T23:49:19.766Z,10.20
2019-03-16T23:51:48.957Z,10.20
2019-03-16T23:54:17.932Z,10.20
2019-03-16T23:56:47.190Z,10.20
2019-03-16T23:59:16.236Z,10.20
